sensor_id;sensor_type;location;lat;lon;timestamp;pressure;altitude;pressure_sealevel;temperature;humidity
75219;BME280;63801;49.414;19.474;2022-12-08T00:00:23;93265.22;;;0.29;76.41
75219;BME280;63801;49.414;19.474;2022-12-08T00:02:23;93275.91;;;0.38;76.29
75219;BME280;63801;49.414;19.474;2022-12-08T00:04:23;93245.00;;;0.20;76.30
75219;BME280;63801;49.414;19.474;2022-12-08T00:06:28;93276.69;;;0.38;76.22
75219;BME280;63801;49.414;19.474;2022-12-08T00:08:47;93288.09;;;0.39;76.34
75219;BME280;63801;49.414;19.474;2022-12-08T00:11:11;93282.78;;;0.39;76.33
75219;BME280;63801;49.414;19.474;2022-12-08T00:13:12;93284.56;;;0.43;76.28
75219;BME280;63801;49.414;19.474;2022-12-08T00:15:12;93286.09;;;0.44;76.33
75219;BME280;63801;49.414;19.474;2022-12-08T00:17:14;93283.16;;;0.46;76.24
75219;BME280;63801;49.414;19.474;2022-12-08T00:19:15;93283.25;;;0.41;76.63
75219;BME280;63801;49.414;19.474;2022-12-08T00:21:15;93283.75;;;0.43;76.25
75219;BME280;63801;49.414;19.474;2022-12-08T00:23:15;93289.84;;;0.43;76.30
75219;BME280;63801;49.414;19.474;2022-12-08T00:25:16;93302.00;;;0.44;76.08
75219;BME280;63801;49.414;19.474;2022-12-08T00:27:16;93280.31;;;0.42;76.13
75219;BME280;63801;49.414;19.474;2022-12-08T00:29:17;93289.75;;;0.49;76.05
75219;BME280;63801;49.414;19.474;2022-12-08T00:31:17;93289.06;;;0.43;76.29
75219;BME280;63801;49.414;19.474;2022-12-08T00:33:17;93291.63;;;0.48;76.30
75219;BME280;63801;49.414;19.474;2022-12-08T00:35:18;93291.91;;;0.47;75.94
75219;BME280;63801;49.414;19.474;2022-12-08T00:37:18;93299.34;;;0.44;76.36
75219;BME280;63801;49.414;19.474;2022-12-08T00:39:18;93293.59;;;0.42;76.20
75219;BME280;63801;49.414;19.474;2022-12-08T00:41:20;93296.53;;;0.41;76.14
75219;BME280;63801;49.414;19.474;2022-12-08T00:43:41;93297.91;;;0.38;76.16
75219;BME280;63801;49.414;19.474;2022-12-08T00:45:42;93302.91;;;0.40;76.38
75219;BME280;63801;49.414;19.474;2022-12-08T00:47:42;93292.59;;;0.38;76.09
75219;BME280;63801;49.414;19.474;2022-12-08T00:49:42;93302.22;;;0.34;76.53
75219;BME280;63801;49.414;19.474;2022-12-08T00:51:43;93274.16;;;0.20;76.50
75219;BME280;63801;49.414;19.474;2022-12-08T00:53:43;93288.09;;;0.25;76.32
75219;BME280;63801;49.414;19.474;2022-12-08T00:55:44;93297.41;;;0.23;76.54
75219;BME280;63801;49.414;19.474;2022-12-08T00:57:44;93276.72;;;0.11;76.32
75219;BME280;63801;49.414;19.474;2022-12-08T00:59:44;93293.97;;;0.22;76.22
75219;BME280;63801;49.414;19.474;2022-12-08T01:01:45;93297.72;;;0.21;76.28
75219;BME280;63801;49.414;19.474;2022-12-08T01:03:52;93285.25;;;0.08;76.28
75219;BME280;63801;49.414;19.474;2022-12-08T01:05:52;93296.75;;;0.17;76.48
75219;BME280;63801;49.414;19.474;2022-12-08T01:07:52;93294.19;;;0.12;76.05
75219;BME280;63801;49.414;19.474;2022-12-08T01:09:53;93291.81;;;0.11;76.24
75219;BME280;63801;49.414;19.474;2022-12-08T01:11:53;93285.63;;;0.02;76.41
75219;BME280;63801;49.414;19.474;2022-12-08T01:13:54;93281.81;;;-0.06;76.45
75219;BME280;63801;49.414;19.474;2022-12-08T01:15:54;93289.47;;;-0.05;76.41
75219;BME280;63801;49.414;19.474;2022-12-08T01:17:54;93287.72;;;-0.09;76.47
75219;BME280;63801;49.414;19.474;2022-12-08T01:19:55;93294.66;;;-0.13;76.18
75219;BME280;63801;49.414;19.474;2022-12-08T01:21:55;93281.19;;;-0.30;76.26
75219;BME280;63801;49.414;19.474;2022-12-08T01:23:58;93302.59;;;-0.27;76.48
75219;BME280;63801;49.414;19.474;2022-12-08T01:26:03;93292.09;;;-0.32;76.40
75219;BME280;63801;49.414;19.474;2022-12-08T01:28:04;93274.31;;;-0.45;76.42
75219;BME280;63801;49.414;19.474;2022-12-08T01:30:05;93283.91;;;-0.49;76.68
75219;BME280;63801;49.414;19.474;2022-12-08T01:32:07;93301.59;;;-0.44;76.62
75219;BME280;63801;49.414;19.474;2022-12-08T01:34:09;93295.06;;;-0.52;77.00
75219;BME280;63801;49.414;19.474;2022-12-08T01:36:22;93297.25;;;-0.54;76.75
75219;BME280;63801;49.414;19.474;2022-12-08T01:38:23;93301.81;;;-0.60;77.28
75219;BME280;63801;49.414;19.474;2022-12-08T01:40:23;93306.13;;;-0.64;77.09
75219;BME280;63801;49.414;19.474;2022-12-08T01:42:24;93288.81;;;-0.75;77.04
75219;BME280;63801;49.414;19.474;2022-12-08T01:46:26;93298.34;;;-0.74;77.28
75219;BME280;63801;49.414;19.474;2022-12-08T01:48:27;93297.94;;;-0.81;77.22
75219;BME280;63801;49.414;19.474;2022-12-08T01:50:28;93288.50;;;-0.87;77.39
75219;BME280;63801;49.414;19.474;2022-12-08T01:52:36;93294.06;;;-0.88;77.70
75219;BME280;63801;49.414;19.474;2022-12-08T01:54:43;93286.50;;;-0.95;78.22
75219;BME280;63801;49.414;19.474;2022-12-08T01:57:00;93295.84;;;-0.84;78.43
75219;BME280;63801;49.414;19.474;2022-12-08T01:59:02;93288.16;;;-0.80;78.47
75219;BME280;63801;49.414;19.474;2022-12-08T02:01:02;93301.00;;;-0.74;78.60
75219;BME280;63801;49.414;19.474;2022-12-08T02:03:06;93301.69;;;-0.68;78.46
75219;BME280;63801;49.414;19.474;2022-12-08T02:05:08;93274.91;;;-0.80;78.59
75219;BME280;63801;49.414;19.474;2022-12-08T02:07:09;93303.41;;;-0.59;78.56
75219;BME280;63801;49.414;19.474;2022-12-08T02:09:11;93298.59;;;-0.57;78.89
75219;BME280;63801;49.414;19.474;2022-12-08T02:11:12;93299.56;;;-0.53;78.79
75219;BME280;63801;49.414;19.474;2022-12-08T02:13:15;93302.03;;;-0.56;78.69
75219;BME280;63801;49.414;19.474;2022-12-08T02:15:16;93306.44;;;-0.52;78.48
75219;BME280;63801;49.414;19.474;2022-12-08T02:22:18;93292.22;;;-0.56;78.80
75219;BME280;63801;49.414;19.474;2022-12-08T02:24:30;93295.84;;;-0.52;78.97
75219;BME280;63801;49.414;19.474;2022-12-08T02:29:34;93318.84;;;-0.33;78.85
75219;BME280;63801;49.414;19.474;2022-12-08T02:39:00;93311.81;;;-0.24;78.74
75219;BME280;63801;49.414;19.474;2022-12-08T02:43:56;93310.34;;;-0.17;78.57
75219;BME280;63801;49.414;19.474;2022-12-08T02:45:54;93312.72;;;-0.15;78.69
75219;BME280;63801;49.414;19.474;2022-12-08T02:47:57;93283.75;;;-0.25;78.35
75219;BME280;63801;49.414;19.474;2022-12-08T02:49:58;93294.53;;;-0.22;78.38
75219;BME280;63801;49.414;19.474;2022-12-08T02:54:12;93311.41;;;-0.18;78.62
75219;BME280;63801;49.414;19.474;2022-12-08T03:00:53;93298.47;;;-0.19;78.43
75219;BME280;63801;49.414;19.474;2022-12-08T03:10:20;93296.91;;;-0.20;78.82
75219;BME280;63801;49.414;19.474;2022-12-08T03:12:45;93288.69;;;-0.19;78.41
75219;BME280;63801;49.414;19.474;2022-12-08T03:14:51;93287.88;;;-0.19;78.46
75219;BME280;63801;49.414;19.474;2022-12-08T03:16:54;93290.53;;;-0.19;78.59
75219;BME280;63801;49.414;19.474;2022-12-08T03:19:08;93294.25;;;-0.20;78.75
75219;BME280;63801;49.414;19.474;2022-12-08T03:21:09;93284.94;;;-0.31;78.43
75219;BME280;63801;49.414;19.474;2022-12-08T03:23:13;93295.41;;;-0.26;78.83
75219;BME280;63801;49.414;19.474;2022-12-08T03:25:16;93293.28;;;-0.24;78.62
75219;BME280;63801;49.414;19.474;2022-12-08T03:27:27;93277.88;;;-0.36;78.61
75219;BME280;63801;49.414;19.474;2022-12-08T03:29:29;93287.28;;;-0.30;78.51
75219;BME280;63801;49.414;19.474;2022-12-08T03:31:32;93259.41;;;-0.41;78.60
75219;BME280;63801;49.414;19.474;2022-12-08T03:33:36;93285.13;;;-0.28;79.07
75219;BME280;63801;49.414;19.474;2022-12-08T03:35:39;93289.03;;;-0.25;78.74
75219;BME280;63801;49.414;19.474;2022-12-08T03:37:40;93299.63;;;-0.25;78.75
75219;BME280;63801;49.414;19.474;2022-12-08T03:39:41;93286.91;;;-0.23;78.79
75219;BME280;63801;49.414;19.474;2022-12-08T03:41:42;93274.53;;;-0.28;78.67
75219;BME280;63801;49.414;19.474;2022-12-08T03:43:43;93287.09;;;-0.20;78.85
75219;BME280;63801;49.414;19.474;2022-12-08T03:45:43;93284.44;;;-0.20;78.92
75219;BME280;63801;49.414;19.474;2022-12-08T03:47:43;93284.16;;;-0.18;78.93
75219;BME280;63801;49.414;19.474;2022-12-08T03:49:43;93275.91;;;-0.17;79.10
75219;BME280;63801;49.414;19.474;2022-12-08T03:51:44;93284.66;;;-0.16;79.02
75219;BME280;63801;49.414;19.474;2022-12-08T03:53:45;93266.00;;;-0.25;79.00
75219;BME280;63801;49.414;19.474;2022-12-08T03:55:45;93282.50;;;-0.14;79.19
75219;BME280;63801;49.414;19.474;2022-12-08T03:57:45;93266.69;;;-0.19;78.91
75219;BME280;63801;49.414;19.474;2022-12-08T03:59:46;93269.63;;;-0.21;78.81
75219;BME280;63801;49.414;19.474;2022-12-08T04:01:46;93283.41;;;-0.05;78.94
75219;BME280;63801;49.414;19.474;2022-12-08T04:03:47;93275.91;;;-0.03;78.70
75219;BME280;63801;49.414;19.474;2022-12-08T04:05:47;93270.94;;;-0.05;78.58
75219;BME280;63801;49.414;19.474;2022-12-08T04:07:47;93277.22;;;-0.01;78.91
75219;BME280;63801;49.414;19.474;2022-12-08T04:09:48;93275.53;;;0.04;78.88
75219;BME280;63801;49.414;19.474;2022-12-08T04:11:48;93281.03;;;0.07;79.11
75219;BME280;63801;49.414;19.474;2022-12-08T04:13:49;93273.56;;;0.09;78.90
75219;BME280;63801;49.414;19.474;2022-12-08T04:15:49;93273.38;;;0.06;78.94
75219;BME280;63801;49.414;19.474;2022-12-08T04:17:49;93273.56;;;0.09;78.45
75219;BME280;63801;49.414;19.474;2022-12-08T04:19:49;93270.44;;;0.07;78.56
75219;BME280;63801;49.414;19.474;2022-12-08T04:21:50;93267.88;;;0.02;78.71
75219;BME280;63801;49.414;19.474;2022-12-08T04:23:50;93267.69;;;-0.02;78.45
75219;BME280;63801;49.414;19.474;2022-12-08T04:25:51;93268.28;;;-0.05;78.57
75219;BME280;63801;49.414;19.474;2022-12-08T04:27:52;93255.50;;;-0.16;78.59
75219;BME280;63801;49.414;19.474;2022-12-08T04:29:52;93266.53;;;-0.09;78.91
75219;BME280;63801;49.414;19.474;2022-12-08T04:31:52;93260.03;;;-0.17;78.95
75219;BME280;63801;49.414;19.474;2022-12-08T04:33:52;93263.47;;;-0.16;79.04
75219;BME280;63801;49.414;19.474;2022-12-08T04:35:53;93271.31;;;-0.11;79.23
75219;BME280;63801;49.414;19.474;2022-12-08T04:37:53;93269.44;;;-0.11;79.28
75219;BME280;63801;49.414;19.474;2022-12-08T04:39:54;93273.97;;;-0.11;79.32
75219;BME280;63801;49.414;19.474;2022-12-08T04:41:54;93265.81;;;-0.15;79.30
75219;BME280;63801;49.414;19.474;2022-12-08T04:43:54;93265.50;;;-0.13;79.17
75219;BME280;63801;49.414;19.474;2022-12-08T04:45:54;93263.38;;;-0.11;79.35
75219;BME280;63801;49.414;19.474;2022-12-08T04:47:55;93261.78;;;-0.12;79.08
75219;BME280;63801;49.414;19.474;2022-12-08T04:49:55;93272.88;;;-0.10;79.38
75219;BME280;63801;49.414;19.474;2022-12-08T04:51:56;93278.66;;;-0.08;78.97
75219;BME280;63801;49.414;19.474;2022-12-08T04:53:56;93270.44;;;-0.07;79.82
75219;BME280;63801;49.414;19.474;2022-12-08T04:55:56;93236.88;;;-0.25;79.26
75219;BME280;63801;49.414;19.474;2022-12-08T04:57:56;93271.22;;;-0.06;79.29
75219;BME280;63801;49.414;19.474;2022-12-08T04:59:57;93235.09;;;-0.16;78.53
75219;BME280;63801;49.414;19.474;2022-12-08T05:01:58;93269.03;;;-0.04;79.10
75219;BME280;63801;49.414;19.474;2022-12-08T05:03:58;93266.91;;;-0.02;78.96
75219;BME280;63801;49.414;19.474;2022-12-08T05:05:59;93260.81;;;-0.03;78.95
75219;BME280;63801;49.414;19.474;2022-12-08T05:08:00;93268.28;;;-0.05;79.05
75219;BME280;63801;49.414;19.474;2022-12-08T05:10:01;93252.06;;;-0.17;78.64
75219;BME280;63801;49.414;19.474;2022-12-08T05:12:02;93268.56;;;-0.06;78.76
75219;BME280;63801;49.414;19.474;2022-12-08T05:14:02;93271.03;;;-0.10;79.05
75219;BME280;63801;49.414;19.474;2022-12-08T05:16:11;93267.28;;;-0.09;79.03
75219;BME280;63801;49.414;19.474;2022-12-08T05:18:11;93272.88;;;-0.10;78.84
75219;BME280;63801;49.414;19.474;2022-12-08T05:20:12;93253.94;;;-0.17;79.02
75219;BME280;63801;49.414;19.474;2022-12-08T05:22:13;93264.94;;;-0.10;78.70
75219;BME280;63801;49.414;19.474;2022-12-08T05:24:13;93263.38;;;-0.11;78.70
75219;BME280;63801;49.414;19.474;2022-12-08T05:26:13;93252.78;;;-0.11;78.83
75219;BME280;63801;49.414;19.474;2022-12-08T05:28:14;93251.59;;;-0.19;79.06
75219;BME280;63801;49.414;19.474;2022-12-08T05:30:14;93258.66;;;-0.14;78.81
75219;BME280;63801;49.414;19.474;2022-12-08T05:32:15;93265.13;;;-0.20;78.75
75219;BME280;63801;49.414;19.474;2022-12-08T05:34:16;93244.63;;;-0.28;78.77
75219;BME280;63801;49.414;19.474;2022-12-08T05:36:16;93265.53;;;-0.27;78.58
75219;BME280;63801;49.414;19.474;2022-12-08T05:38:17;93265.53;;;-0.27;78.63
75219;BME280;63801;49.414;19.474;2022-12-08T05:40:17;93266.88;;;-0.29;78.82
75219;BME280;63801;49.414;19.474;2022-12-08T05:42:17;93257.06;;;-0.29;78.80
75219;BME280;63801;49.414;19.474;2022-12-08T05:44:18;93269.06;;;-0.31;78.54
75219;BME280;63801;49.414;19.474;2022-12-08T05:46:18;93250.97;;;-0.43;78.88
75219;BME280;63801;49.414;19.474;2022-12-08T05:48:18;93264.72;;;-0.41;78.98
75219;BME280;63801;49.414;19.474;2022-12-08T05:50:19;93264.91;;;-0.37;78.82
75219;BME280;63801;49.414;19.474;2022-12-08T05:52:19;93274.91;;;-0.34;78.60
75219;BME280;63801;49.414;19.474;2022-12-08T05:54:19;93271.59;;;-0.40;78.90
75219;BME280;63801;49.414;19.474;2022-12-08T05:56:21;93271.19;;;-0.33;78.84
75219;BME280;63801;49.414;19.474;2022-12-08T05:58:22;93271.97;;;-0.33;78.97
75219;BME280;63801;49.414;19.474;2022-12-08T06:00:22;93270.13;;;-0.32;78.70
75219;BME280;63801;49.414;19.474;2022-12-08T06:02:23;93256.47;;;-0.39;78.45
75219;BME280;63801;49.414;19.474;2022-12-08T06:04:23;93255.03;;;-0.32;78.55
75219;BME280;63801;49.414;19.474;2022-12-08T06:06:24;93267.06;;;-0.39;78.54
75219;BME280;63801;49.414;19.474;2022-12-08T06:08:24;93275.50;;;-0.37;78.44
75219;BME280;63801;49.414;19.474;2022-12-08T06:10:24;93263.41;;;-0.43;78.41
75219;BME280;63801;49.414;19.474;2022-12-08T06:12:25;93277.09;;;-0.36;78.67
75219;BME280;63801;49.414;19.474;2022-12-08T06:14:25;93270.22;;;-0.37;78.52
75219;BME280;63801;49.414;19.474;2022-12-08T06:16:26;93274.25;;;-0.40;78.41
75219;BME280;63801;49.414;19.474;2022-12-08T06:18:27;93277.63;;;-0.39;78.28
75219;BME280;63801;49.414;19.474;2022-12-08T06:20:27;93281.38;;;-0.40;78.55
75219;BME280;63801;49.414;19.474;2022-12-08T06:22:27;93266.94;;;-0.48;78.44
75219;BME280;63801;49.414;19.474;2022-12-08T06:24:28;93268.72;;;-0.43;78.70
75219;BME280;63801;49.414;19.474;2022-12-08T06:26:29;93249.97;;;-0.61;78.33
75219;BME280;63801;49.414;19.474;2022-12-08T06:28:30;93270.81;;;-0.40;78.49
75219;BME280;63801;49.414;19.474;2022-12-08T06:30:31;93271.97;;;-0.47;78.64
75219;BME280;63801;49.414;19.474;2022-12-08T06:32:31;93279.81;;;-0.41;78.71
75219;BME280;63801;49.414;19.474;2022-12-08T06:34:32;93274.31;;;-0.45;78.48
75219;BME280;63801;49.414;19.474;2022-12-08T06:36:32;93282.75;;;-0.43;78.58
75219;BME280;63801;49.414;19.474;2022-12-08T06:38:33;93270.97;;;-0.51;78.75
75219;BME280;63801;49.414;19.474;2022-12-08T06:40:34;93286.69;;;-0.40;78.73
75219;BME280;63801;49.414;19.474;2022-12-08T06:42:34;93277.44;;;-0.43;78.32
75219;BME280;63801;49.414;19.474;2022-12-08T06:44:43;93291.88;;;-0.35;78.79
75219;BME280;63801;49.414;19.474;2022-12-08T06:46:44;93277.09;;;-0.36;78.23
75219;BME280;63801;49.414;19.474;2022-12-08T06:48:44;93295.53;;;-0.31;78.52
75219;BME280;63801;49.414;19.474;2022-12-08T06:50:45;93298.38;;;-0.28;78.46
75219;BME280;63801;49.414;19.474;2022-12-08T06:52:45;93287.28;;;-0.30;78.71
75219;BME280;63801;49.414;19.474;2022-12-08T06:54:45;93302.47;;;-0.22;78.62
75219;BME280;63801;49.414;19.474;2022-12-08T06:56:46;93283.28;;;-0.27;78.68
75219;BME280;63801;49.414;19.474;2022-12-08T06:58:46;93287.28;;;-0.16;78.38
75219;BME280;63801;49.414;19.474;2022-12-08T07:00:46;93303.59;;;-0.09;78.43
75219;BME280;63801;49.414;19.474;2022-12-08T07:02:47;93282.50;;;-0.14;78.39
75219;BME280;63801;49.414;19.474;2022-12-08T07:04:47;93295.75;;;-0.01;78.27
75219;BME280;63801;49.414;19.474;2022-12-08T07:06:48;93302.03;;;0.04;78.51
75219;BME280;63801;49.414;19.474;2022-12-08T07:08:49;93302.94;;;0.13;78.26
75219;BME280;63801;49.414;19.474;2022-12-08T07:10:49;93286.72;;;0.14;78.31
75219;BME280;63801;49.414;19.474;2022-12-08T07:12:49;93292.44;;;0.21;77.96
75219;BME280;63801;49.414;19.474;2022-12-08T07:14:50;93303.41;;;0.28;78.09
75219;BME280;63801;49.414;19.474;2022-12-08T07:16:50;93298.88;;;0.29;77.89
75219;BME280;63801;49.414;19.474;2022-12-08T07:18:51;93295.06;;;0.35;77.82
75219;BME280;63801;49.414;19.474;2022-12-08T07:20:51;93306.34;;;0.40;77.93
75219;BME280;63801;49.414;19.474;2022-12-08T07:22:52;93302.59;;;0.41;78.03
75219;BME280;63801;49.414;19.474;2022-12-08T07:24:52;93299.06;;;0.60;78.16
75219;BME280;63801;49.414;19.474;2022-12-08T07:26:53;93286.78;;;0.64;77.78
75219;BME280;63801;49.414;19.474;2022-12-08T07:28:53;93302.38;;;0.79;77.23
75219;BME280;63801;49.414;19.474;2022-12-08T07:30:53;93307.44;;;0.89;77.20
75219;BME280;63801;49.414;19.474;2022-12-08T07:32:54;93306.25;;;0.95;77.02
75219;BME280;63801;49.414;19.474;2022-12-08T07:34:54;93279.56;;;0.78;76.94
75219;BME280;63801;49.414;19.474;2022-12-08T07:36:54;93290.63;;;0.94;77.30
75219;BME280;63801;49.414;19.474;2022-12-08T07:38:58;93289.44;;;1.22;77.06
75219;BME280;63801;49.414;19.474;2022-12-08T07:40:59;93274.78;;;1.24;76.72
75219;BME280;63801;49.414;19.474;2022-12-08T07:43:00;93284.25;;;1.39;75.92
75219;BME280;63801;49.414;19.474;2022-12-08T07:45:00;93287.81;;;1.34;75.26
75219;BME280;63801;49.414;19.474;2022-12-08T07:47:00;93295.66;;;1.40;75.59
75219;BME280;63801;49.414;19.474;2022-12-08T07:49:00;93294.94;;;1.48;75.61
75219;BME280;63801;49.414;19.474;2022-12-08T07:51:02;93293.63;;;1.59;75.32
75219;BME280;63801;49.414;19.474;2022-12-08T07:53:03;93300.72;;;1.72;75.45
75219;BME280;63801;49.414;19.474;2022-12-08T07:55:04;93293.72;;;1.76;74.75
75219;BME280;63801;49.414;19.474;2022-12-08T07:57:06;93296.50;;;1.71;74.28
75219;BME280;63801;49.414;19.474;2022-12-08T07:59:08;93290.22;;;1.67;74.40
75219;BME280;63801;49.414;19.474;2022-12-08T08:03:22;93298.06;;;1.72;74.54
75219;BME280;63801;49.414;19.474;2022-12-08T08:05:22;93308.69;;;1.72;74.15
75219;BME280;63801;49.414;19.474;2022-12-08T08:07:22;93304.00;;;1.77;73.99
75219;BME280;63801;49.414;19.474;2022-12-08T08:09:23;93303.38;;;1.72;73.75
75219;BME280;63801;49.414;19.474;2022-12-08T08:11:23;93301.63;;;1.67;73.48
75219;BME280;63801;49.414;19.474;2022-12-08T08:13:23;93307.34;;;1.61;73.71
75219;BME280;63801;49.414;19.474;2022-12-08T08:15:24;93293.06;;;1.48;73.60
75219;BME280;63801;49.414;19.474;2022-12-08T08:17:24;93308.34;;;1.43;73.89
75219;BME280;63801;49.414;19.474;2022-12-08T08:19:25;93298.63;;;1.38;73.99
75219;BME280;63801;49.414;19.474;2022-12-08T08:21:25;93301.59;;;1.37;74.09
75219;BME280;63801;49.414;19.474;2022-12-08T08:23:26;93298.16;;;1.36;74.23
75219;BME280;63801;49.414;19.474;2022-12-08T08:25:26;93299.06;;;1.31;74.21
75219;BME280;63801;49.414;19.474;2022-12-08T08:27:27;93305.44;;;1.30;74.33
75219;BME280;63801;49.414;19.474;2022-12-08T08:29:27;93306.63;;;1.24;74.38
75219;BME280;63801;49.414;19.474;2022-12-08T08:31:27;93308.72;;;1.27;74.38
75219;BME280;63801;49.414;19.474;2022-12-08T08:33:28;93300.97;;;1.17;74.61
75219;BME280;63801;49.414;19.474;2022-12-08T08:35:28;93308.31;;;1.20;74.90
75219;BME280;63801;49.414;19.474;2022-12-08T08:37:29;93316.41;;;1.15;74.81
75219;BME280;63801;49.414;19.474;2022-12-08T08:39:30;93322.69;;;1.19;74.75
75219;BME280;63801;49.414;19.474;2022-12-08T08:41:31;93316.41;;;1.15;74.76
75219;BME280;63801;49.414;19.474;2022-12-08T08:43:31;93313.28;;;1.13;75.19
75219;BME280;63801;49.414;19.474;2022-12-08T08:45:32;93305.53;;;1.03;75.26
75219;BME280;63801;49.414;19.474;2022-12-08T08:47:32;93319.19;;;1.10;75.32
75219;BME280;63801;49.414;19.474;2022-12-08T08:49:33;93316.81;;;1.09;75.11
75219;BME280;63801;49.414;19.474;2022-12-08T08:51:33;93314.47;;;1.07;75.25
75219;BME280;63801;49.414;19.474;2022-12-08T08:53:34;93294.44;;;1.01;75.38
75219;BME280;63801;49.414;19.474;2022-12-08T08:55:37;93304.47;;;1.04;75.20
75219;BME280;63801;49.414;19.474;2022-12-08T08:57:38;93293.47;;;0.97;75.47
75219;BME280;63801;49.414;19.474;2022-12-08T08:59:38;93299.88;;;0.96;75.29
75219;BME280;63801;49.414;19.474;2022-12-08T09:01:39;93308.63;;;0.97;75.53
75219;BME280;63801;49.414;19.474;2022-12-08T09:03:39;93301.38;;;0.88;75.52
75219;BME280;63801;49.414;19.474;2022-12-08T09:05:39;93314.22;;;0.95;75.54
75219;BME280;63801;49.414;19.474;2022-12-08T09:07:40;93305.97;;;0.97;75.54
75219;BME280;63801;49.414;19.474;2022-12-08T09:09:40;93295.06;;;0.84;75.79
75219;BME280;63801;49.414;19.474;2022-12-08T09:11:42;93303.09;;;0.93;75.82
75219;BME280;63801;49.414;19.474;2022-12-08T09:13:42;93305.47;;;0.95;75.73
75219;BME280;63801;49.414;19.474;2022-12-08T09:15:42;93299.88;;;0.96;76.21
75219;BME280;63801;49.414;19.474;2022-12-08T09:17:42;93303.00;;;0.98;75.69
75219;BME280;63801;49.414;19.474;2022-12-08T09:19:43;93296.72;;;0.94;75.75
75219;BME280;63801;49.414;19.474;2022-12-08T09:21:43;93301.44;;;0.97;75.87
75219;BME280;63801;49.414;19.474;2022-12-08T09:23:43;93286.81;;;0.86;75.86
75219;BME280;63801;49.414;19.474;2022-12-08T09:25:44;93299.97;;;0.91;76.05
75219;BME280;63801;49.414;19.474;2022-12-08T09:27:47;93303.09;;;0.93;75.91
75219;BME280;63801;49.414;19.474;2022-12-08T09:29:47;93296.13;;;0.97;75.97
75219;BME280;63801;49.414;19.474;2022-12-08T09:31:47;93284.84;;;0.92;75.90
75219;BME280;63801;49.414;19.474;2022-12-08T09:33:49;93281.69;;;0.89;75.93
75219;BME280;63801;49.414;19.474;2022-12-08T09:35:52;93273.09;;;0.84;76.11
75219;BME280;63801;49.414;19.474;2022-12-08T09:37:52;93283.94;;;0.96;76.11
75219;BME280;63801;49.414;19.474;2022-12-08T09:39:53;93277.16;;;0.90;76.13
75219;BME280;63801;49.414;19.474;2022-12-08T09:42:02;93280.69;;;0.99;76.25
75219;BME280;63801;49.414;19.474;2022-12-08T09:46:41;93274.00;;;1.02;76.49
75219;BME280;63801;49.414;19.474;2022-12-08T09:48:47;93256.69;;;1.04;76.42
75219;BME280;63801;49.414;19.474;2022-12-08T09:50:55;93269.13;;;1.17;76.42
75219;BME280;63801;49.414;19.474;2022-12-08T09:55:19;93252.41;;;1.39;76.44
75219;BME280;63801;49.414;19.474;2022-12-08T09:57:23;93256.72;;;1.57;76.39
75219;BME280;63801;49.414;19.474;2022-12-08T09:59:28;93244.56;;;1.65;76.15
75219;BME280;63801;49.414;19.474;2022-12-08T10:01:32;93256.22;;;1.86;76.38
75219;BME280;63801;49.414;19.474;2022-12-08T10:03:33;93254.94;;;2.14;75.74
75219;BME280;63801;49.414;19.474;2022-12-08T10:05:36;93251.78;;;2.52;75.37
75219;BME280;63801;49.414;19.474;2022-12-08T10:08:08;93247.28;;;2.87;74.94
75219;BME280;63801;49.414;19.474;2022-12-08T10:17:21;93228.91;;;3.54;72.59
75219;BME280;63801;49.414;19.474;2022-12-08T10:19:24;93234.22;;;3.54;72.37
75219;BME280;63801;49.414;19.474;2022-12-08T10:21:27;93232.53;;;3.49;72.05
75219;BME280;63801;49.414;19.474;2022-12-08T10:23:35;93206.06;;;3.27;71.51
75219;BME280;63801;49.414;19.474;2022-12-08T10:25:47;93224.88;;;3.31;72.09
75219;BME280;63801;49.414;19.474;2022-12-08T10:27:50;93228.00;;;3.24;72.10
75219;BME280;63801;49.414;19.474;2022-12-08T10:29:52;93224.25;;;3.16;71.99
75219;BME280;63801;49.414;19.474;2022-12-08T10:31:52;93202.47;;;3.06;72.27
75219;BME280;63801;49.414;19.474;2022-12-08T10:33:58;93219.88;;;3.03;71.78
75219;BME280;63801;49.414;19.474;2022-12-08T10:35:59;93212.19;;;2.85;72.00
75219;BME280;63801;49.414;19.474;2022-12-08T10:38:02;93220.31;;;2.71;71.92
75219;BME280;63801;49.414;19.474;2022-12-08T10:40:15;93219.22;;;2.63;72.22
75219;BME280;63801;49.414;19.474;2022-12-08T10:42:19;93220.47;;;2.66;72.62
75219;BME280;63801;49.414;19.474;2022-12-08T10:44:20;93215.34;;;2.69;72.67
75219;BME280;63801;49.414;19.474;2022-12-08T10:46:22;93208.09;;;2.70;72.56
75219;BME280;63801;49.414;19.474;2022-12-08T10:48:28;93196.72;;;2.61;72.58
75219;BME280;63801;49.414;19.474;2022-12-08T10:50:42;93202.34;;;2.68;72.33
75219;BME280;63801;49.414;19.474;2022-12-08T10:52:43;93205.63;;;2.65;72.24
75219;BME280;63801;49.414;19.474;2022-12-08T10:54:44;93206.88;;;2.59;72.10
75219;BME280;63801;49.414;19.474;2022-12-08T10:56:52;93205.28;;;2.49;72.14
75219;BME280;63801;49.414;19.474;2022-12-08T10:59:17;93209.50;;;2.42;72.13
75219;BME280;63801;49.414;19.474;2022-12-08T11:01:27;93208.06;;;2.36;72.16
75219;BME280;63801;49.414;19.474;2022-12-08T11:03:35;93205.72;;;2.25;72.43
75219;BME280;63801;49.414;19.474;2022-12-08T11:05:37;93204.59;;;2.18;72.48
75219;BME280;63801;49.414;19.474;2022-12-08T11:07:45;93207.59;;;2.16;72.69
75219;BME280;63801;49.414;19.474;2022-12-08T11:09:47;93206.31;;;2.14;72.68
75219;BME280;63801;49.414;19.474;2022-12-08T11:11:58;93193.94;;;2.09;72.96
75219;BME280;63801;49.414;19.474;2022-12-08T11:14:05;93201.75;;;2.06;72.80
75219;BME280;63801;49.414;19.474;2022-12-08T11:16:07;93180.94;;;1.99;72.99
75219;BME280;63801;49.414;19.474;2022-12-08T11:18:29;93189.72;;;2.08;73.21
75219;BME280;63801;49.414;19.474;2022-12-08T11:20:39;93191.28;;;2.09;73.20
75219;BME280;63801;49.414;19.474;2022-12-08T11:22:42;93189.72;;;2.08;73.10
75219;BME280;63801;49.414;19.474;2022-12-08T11:24:43;93193.78;;;2.06;72.99
75219;BME280;63801;49.414;19.474;2022-12-08T11:26:51;93187.38;;;2.07;73.38
75219;BME280;63801;49.414;19.474;2022-12-08T11:28:51;93186.09;;;2.04;73.45
75219;BME280;63801;49.414;19.474;2022-12-08T11:30:56;93191.13;;;2.06;73.33